LPAZ/SMA METAR and TAF weather

Enter ICAO airport designator
Station Type Date Time Source
LPAZ METAR 2022/05/23 14:30 UTC NOAA

LPAZ 231430Z 04009KT 6000 VCSH BKN002 BKN007 19/17 Q1024


Station Type Date Time Source
LPAZ Decoded METAR 2022/05/23 14:30 UTC NOAA

Santa Maria Acores , Portugal (LPAZ) 36-58N 025-10W 100M
May 23, 2022 - 10:30 AM EDT / 2022.05.23 1430 UTC
Wind: from the NE (040 degrees) at 10 MPH (9 KT):0
Visibility: 3 mile(s):0
Sky conditions: mostly cloudy
Weather: showers in the vicinity
Temperature: 66 F (19 C)
Dew Point: 62 F (17 C)
Relative Humidity: 88%
Pressure (altimeter): 30.24 in. Hg (1024 hPa)
ob: LPAZ 231430Z 04009KT 6000 VCSH BKN002 BKN007 19/17 Q1024
cycle: 14

Station Type Date Time Source
LPAZ TAF 2022/05/23 12:18 UTC NOAA

TAF TAF LPAZ 231100Z 2312/2418 VRB05KT 9999 SCT008 SCT015
TEMPO 2312/2318 2000 DZRA BR BKN002
BECMG 2312/2315 06008KT
BECMG 2400/2403 SCT020
TEMPO 2403/2418 FEW020 BKN035

Example: see airport list